EIDWEGOV

Guest
Details From EIDW - Dublin
To EGOV - Valley
Flight Number -
Tags Generated
Created
Modified
Stats Distance 63 nm / 116 km
Max Altitude 0 ft / 0 m
Waypoints 2
Social Downloads 4
Likes 0
Share VATSIM

Download

Looking for another format? Having issues loading an existing format? Contact us
Advertisement - Login to hide

Notes

Generated

Route

EIDW EGOV

ID Type Via Altitude Latitude Longitude Leg Dist Tot Dist Heading (true) Name
O EIDW APT - 0 ft / 0 m 53.43655˚ -6.26227˚ - 0 nm - -
O EGOV APT - 0 ft / 0 m 53.24574˚ -4.54578˚ 62 nm 62 nm 100° / 101° -

Altitude Profile

Advertisement - Login to hide

EIDW

Details ICAO EIDW (DUB)
Name Dublin
Region Ireland
Timezone Europe/Dublin (UTC+0.0)
Stats Elevation 242 ft / 74 m (AMSL)
Location 53.428264° -6.259550°
Runways 3
Magnetic Variation 3.021° W

METAR

EIDW 181100Z 17004KT 120V200 9999 FEW030 BKN250 07/04 Q1030 NOSIG

Decode

TAF

TAF EIDW 172300Z 1800/1824 28007KT 9999 FEW012 SCT040 PROB30 TEMPO 1803/1810 4000 BR BECMG 1809/1812 22005KT BECMG 1818/1821 SCT010 BKN015 TEMPO 1821/1824 4000 BR -DZ BKN006

Decode

Departure Runways

ID Width Length Bearing (true) Bearing (mag) Surface Threshold Offset Overrun Length
10 148 ft / 45 m 8,625 ft / 2,629 m 95.25° 98.27° Concrete 0 ft / 0 m 0 ft / 0 m
11 200 ft / 61 m 4,380 ft / 1,335 m 105.01° 108.03° Asphalt 279 ft / 85 m 0 ft / 0 m
16 200 ft / 61 m 6,791 ft / 2,070 m 156.64° 159.66° Asphalt 0 ft / 0 m 0 ft / 0 m
28 148 ft / 45 m 8,625 ft / 2,629 m 275.28° 278.30° Concrete 0 ft / 0 m 0 ft / 0 m
29 200 ft / 61 m 4,380 ft / 1,335 m 285.02° 288.04° Asphalt 0 ft / 0 m 0 ft / 0 m
34 200 ft / 61 m 6,791 ft / 2,070 m 336.65° 339.67° Asphalt 0 ft / 0 m 0 ft / 0 m

EGOV

Details ICAO EGOV (HLY)
Name RAF Valley
Region United Kingdom
Timezone Europe/London (UTC+0.0)
Stats Elevation 37 ft / 11 m (AMSL)
Location 53.248528° -4.536473°
Runways 3
Magnetic Variation 2.310° W

METAR

EGOV 181050Z 16004KT 9999 FEW015 BKN300 07/06 Q1030 BLU NOSIG

Decode

TAF

Not found

Destination Runways

ID Width Length Bearing (true) Bearing (mag) Surface Threshold Offset Overrun Length
01 157 ft / 48 m 5,470 ft / 1,667 m 6.15° 8.46° Asphalt 72 ft / 22 m 7 ft / 2 m
08 154 ft / 47 m 4,174 ft / 1,272 m 69.67° 71.98° Asphalt 702 ft / 214 m 0 ft / 0 m
14 154 ft / 47 m 7,551 ft / 2,302 m 130.54° 132.85° Asphalt 59 ft / 18 m 0 ft / 0 m
19 157 ft / 48 m 5,470 ft / 1,667 m 186.16° 188.47° Asphalt 213 ft / 65 m 0 ft / 0 m
26 154 ft / 47 m 4,174 ft / 1,272 m 249.69° 252.00° Asphalt 400 ft / 122 m 0 ft / 0 m
32 154 ft / 47 m 7,551 ft / 2,302 m 310.56° 312.87° Asphalt 0 ft / 0 m 627 ft / 191 m

Approach Navaids

Runway Type Ident Frequency Range Bearing (true) Bearing (mag) Slope Elevation
14 Localiser VY 109.70 MHz 18 nm / 33 km 132.00° 134.31° - 37 ft / 11 m (AMSL)
14 Glidescope VY 109.70 MHz 10 nm / 19 km 132.00° 134.31° 3.00° 37 ft / 11 m (AMSL)

Popular Alternatives